Terminal Aerodrome Forecast
Issued by NWS

Home | Current Version | Previous Version | Text Only | Print | Product List | Glossary On
Versions: 1 2 3 4 5 6 7 8 9 10 11 12 13 14 15 16 17 18 19 20 21 22 23 24 25 26 27 28 29 30 31 32 33 34 35 36 37 38
000
FTUS44 KLIX 271159 AAA
TAFHUM
TAF AMD
KHUM 271159Z 2712/2812 15010G14KT P6SM SCT024 SCT030 SCT045
     FM271500 15012KT P6SM BKN080
     FM280200 14007KT P6SM OVC140=

USA.gov is the U.S. government's official web portal to all federal, state and local government web resources and services.